createdAt,value
2022-10-12T00:02:23.901Z,11.73
2022-10-12T00:04:50.717Z,11.73
2022-10-12T00:07:17.626Z,11.73
2022-10-12T00:09:44.465Z,11.73
2022-10-12T00:12:11.202Z,11.71
2022-10-12T00:14:38.600Z,11.70
2022-10-12T00:17:05.389Z,11.70
2022-10-12T00:19:32.274Z,11.69
2022-10-12T00:21:58.973Z,11.69
2022-10-12T00:24:25.877Z,11.67
2022-10-12T00:26:52.767Z,11.67
2022-10-12T00:29:19.468Z,11.65
2022-10-12T00:31:46.267Z,11.64
2022-10-12T00:34:13.037Z,11.62
2022-10-12T00:36:39.785Z,11.60
2022-10-12T00:39:10.031Z,11.60
2022-10-12T00:41:42.536Z,11.58
2022-10-12T00:44:46.100Z,11.54
2022-10-12T00:47:28.073Z,11.48
2022-10-12T00:50:15.626Z,11.44
2022-10-12T00:52:58.438Z,11.40
2022-10-12T00:55:30.383Z,11.35
2022-10-12T00:57:58.537Z,11.37
2022-10-12T01:00:26.593Z,11.37
2022-10-12T01:02:55.518Z,11.35
2022-10-12T01:05:24.093Z,11.35
2022-10-12T01:07:51.420Z,11.34
2022-10-12T01:10:18.322Z,11.33
2022-10-12T01:12:49.519Z,11.33
2022-10-12T01:15:16.812Z,11.35
2022-10-12T01:18:06.264Z,11.34
2022-10-12T01:20:54.198Z,11.29
2022-10-12T01:23:38.734Z,11.26
2022-10-12T01:26:48.221Z,11.25
2022-10-12T01:30:01.674Z,11.21
2022-10-12T01:32:58.500Z,11.18
2022-10-12T01:36:00.468Z,11.18
2022-10-12T01:38:46.300Z,11.17
2022-10-12T01:41:28.544Z,11.17
2022-10-12T01:43:55.271Z,11.21
2022-10-12T01:46:24.973Z,11.21
2022-10-12T01:48:56.898Z,11.23
2022-10-12T01:51:38.916Z,11.24
2022-10-12T01:54:30.104Z,11.24
2022-10-12T01:57:40.302Z,11.23
2022-10-12T02:00:11.684Z,11.19
2022-10-12T02:02:54.736Z,11.19
2022-10-12T02:05:37.901Z,11.18
2022-10-12T02:08:18.604Z,11.17
2022-10-12T02:11:14.221Z,11.16
2022-10-12T02:14:08.948Z,11.14
2022-10-12T02:16:47.589Z,11.10
2022-10-12T02:19:21.625Z,11.09
2022-10-12T02:21:51.215Z,11.09
2022-10-12T02:24:20.371Z,11.10
2022-10-12T02:26:52.553Z,11.09
2022-10-12T02:29:33.988Z,11.06
2022-10-12T02:32:39.479Z,11.04
2022-10-12T02:35:16.005Z,11.00
2022-10-12T02:37:46.470Z,10.98
2022-10-12T02:40:30.164Z,10.98
2022-10-12T02:43:11.179Z,10.95
2022-10-12T02:45:44.863Z,10.92
2022-10-12T02:48:17.563Z,10.91
2022-10-12T02:50:45.850Z,10.89
2022-10-12T02:53:13.537Z,10.88
2022-10-12T02:56:06.976Z,10.86
2022-10-12T02:58:33.861Z,10.81
2022-10-12T03:01:00.671Z,10.80
2022-10-12T03:03:27.521Z,10.80
2022-10-12T03:05:54.539Z,10.80
2022-10-12T03:08:21.319Z,10.79
2022-10-12T03:10:48.041Z,10.77
2022-10-12T03:13:14.775Z,10.76
2022-10-12T03:15:41.546Z,10.74
2022-10-12T03:18:08.312Z,10.72
2022-10-12T03:20:35.079Z,10.73
2022-10-12T03:23:01.939Z,10.74
2022-10-12T03:25:28.844Z,10.72
2022-10-12T03:27:55.577Z,10.73
2022-10-12T03:30:22.291Z,10.72
2022-10-12T03:32:49.083Z,10.70
2022-10-12T03:35:15.992Z,10.69
2022-10-12T03:37:42.749Z,10.69
2022-10-12T03:40:10.404Z,10.68
2022-10-12T03:42:37.121Z,10.69
2022-10-12T03:45:04.931Z,10.66
2022-10-12T03:47:31.680Z,10.67
2022-10-12T03:49:58.386Z,10.67
2022-10-12T03:52:25.178Z,10.68
2022-10-12T03:54:51.882Z,10.68
2022-10-12T03:57:18.628Z,10.68
2022-10-12T03:59:45.386Z,10.68
2022-10-12T04:02:16.644Z,10.67
2022-10-12T04:04:44.381Z,10.68
2022-10-12T04:07:11.478Z,10.69
2022-10-12T04:09:38.318Z,10.71
2022-10-12T04:12:05.325Z,10.73
2022-10-12T04:14:32.023Z,10.74
2022-10-12T04:16:59.717Z,10.76
2022-10-12T04:19:26.484Z,10.76
2022-10-12T04:21:53.186Z,10.78
2022-10-12T04:24:20.284Z,10.80
2022-10-12T04:26:46.977Z,10.80
2022-10-12T04:29:14.270Z,10.81
2022-10-12T04:31:42.115Z,10.81
2022-10-12T04:34:12.025Z,10.83
2022-10-12T04:36:39.342Z,10.83
2022-10-12T04:39:06.227Z,10.85
2022-10-12T04:41:33.238Z,10.87
2022-10-12T04:43:59.993Z,10.89
2022-10-12T04:46:26.842Z,10.91
2022-10-12T04:48:53.567Z,10.95
2022-10-12T04:51:20.348Z,10.94
2022-10-12T04:53:47.055Z,10.95
2022-10-12T04:56:13.842Z,10.95
2022-10-12T04:58:40.608Z,10.94
2022-10-12T05:01:07.387Z,10.97
2022-10-12T05:03:38.210Z,10.96
2022-10-12T05:06:07.870Z,10.96
2022-10-12T05:08:34.588Z,10.96
2022-10-12T05:11:01.672Z,10.96
2022-10-12T05:13:28.757Z,10.95
2022-10-12T05:15:55.497Z,10.96
2022-10-12T05:18:22.223Z,10.94
2022-10-12T05:20:52.181Z,10.90
2022-10-12T05:23:21.308Z,10.88
2022-10-12T05:25:48.048Z,10.84
2022-10-12T05:28:14.801Z,10.80
2022-10-12T05:30:41.605Z,10.80
2022-10-12T05:33:08.392Z,10.77
2022-10-12T05:35:35.222Z,10.76
2022-10-12T05:38:01.935Z,10.76
2022-10-12T05:40:28.767Z,10.74
2022-10-12T05:42:55.566Z,10.74
2022-10-12T05:45:22.335Z,10.74
2022-10-12T05:47:49.086Z,10.75
2022-10-12T05:50:15.966Z,10.74
2022-10-12T05:52:42.707Z,10.74
2022-10-12T05:55:09.717Z,10.73
2022-10-12T05:57:37.696Z,10.71
2022-10-12T06:00:08.388Z,10.71
2022-10-12T06:02:35.757Z,10.70
2022-10-12T06:05:03.200Z,10.72
2022-10-12T06:07:29.919Z,10.74
2022-10-12T06:09:56.863Z,10.77
2022-10-12T06:12:24.276Z,10.83
2022-10-12T06:14:52.233Z,10.87
2022-10-12T06:17:19.126Z,10.93
2022-10-12T06:19:45.991Z,11.02
2022-10-12T06:22:12.865Z,11.14
2022-10-12T06:24:39.593Z,11.29
2022-10-12T06:27:06.411Z,11.52
2022-10-12T06:29:33.711Z,11.80
2022-10-12T06:32:00.426Z,12.21
2022-10-12T06:34:27.206Z,12.73
2022-10-12T06:36:57.062Z,13.30
2022-10-12T06:39:26.234Z,13.99
2022-10-12T06:41:54.475Z,14.65
2022-10-12T06:44:22.440Z,15.33
2022-10-12T06:46:50.517Z,15.99
2022-10-12T06:49:20.318Z,16.56
2022-10-12T06:51:47.166Z,17.05
2022-10-12T06:54:14.075Z,17.51
2022-10-12T06:56:40.832Z,17.88
2022-10-12T06:59:08.346Z,18.24
2022-10-12T07:01:35.168Z,18.72
2022-10-12T07:04:02.111Z,19.32
2022-10-12T07:06:28.897Z,20.04
2022-10-12T07:08:55.880Z,20.78
2022-10-12T07:11:22.797Z,21.60
2022-10-12T07:13:49.535Z,22.40
2022-10-12T07:16:16.643Z,23.19
2022-10-12T07:18:43.447Z,23.91
2022-10-12T07:21:10.270Z,24.53
2022-10-12T07:23:40.197Z,25.00
2022-10-12T07:26:09.617Z,25.49
2022-10-12T07:28:37.235Z,25.94
2022-10-12T07:31:07.195Z,26.49
2022-10-12T07:33:36.205Z,27.03
2022-10-12T07:36:13.992Z,27.62
2022-10-12T07:38:45.797Z,28.29
2022-10-12T07:41:13.093Z,28.83
2022-10-12T07:43:39.884Z,29.31
2022-10-12T07:46:07.424Z,29.78
2022-10-12T07:48:34.757Z,30.33
2022-10-12T07:51:10.277Z,30.82
2022-10-12T07:53:39.353Z,31.09
2022-10-12T07:56:15.150Z,31.05
2022-10-12T07:58:56.369Z,30.73
2022-10-12T08:01:27.757Z,30.53
2022-10-12T08:04:00.308Z,30.32
2022-10-12T08:06:32.421Z,30.01
2022-10-12T08:09:01.217Z,29.75
2022-10-12T08:11:29.600Z,29.55
2022-10-12T08:13:56.567Z,29.43
2022-10-12T08:16:24.101Z,29.48
2022-10-12T08:18:51.786Z,29.61
2022-10-12T08:21:19.083Z,29.76
2022-10-12T08:23:46.606Z,29.91
2022-10-12T08:26:15.758Z,30.12
2022-10-12T08:28:43.263Z,30.32
2022-10-12T08:31:14.786Z,30.55
2022-10-12T08:33:41.779Z,30.91
2022-10-12T08:36:09.183Z,31.34
2022-10-12T08:38:38.990Z,31.86
2022-10-12T08:41:39.704Z,32.48
2022-10-12T08:44:46.605Z,31.72
2022-10-12T08:47:38.693Z,33.44
2022-10-12T08:50:16.370Z,33.31
2022-10-12T08:52:56.173Z,33.62
2022-10-12T08:55:39.511Z,34.04
2022-10-12T08:58:36.622Z,34.55
2022-10-12T09:01:28.781Z,35.16
2022-10-12T09:04:20.505Z,35.67
2022-10-12T09:07:18.250Z,36.14
2022-10-12T09:10:02.659Z,36.51
2022-10-12T09:13:14.476Z,36.77
2022-10-12T09:15:49.412Z,37.10
2022-10-12T09:18:21.572Z,37.36
2022-10-12T09:20:54.697Z,37.64
2022-10-12T09:23:31.960Z,37.89
2022-10-12T09:26:10.840Z,38.22
2022-10-12T09:28:55.892Z,38.53
2022-10-12T09:31:51.921Z,38.89
2022-10-12T09:34:19.695Z,39.25
2022-10-12T09:36:46.692Z,39.52
2022-10-12T09:39:28.890Z,39.75
2022-10-12T09:41:56.470Z,39.97
2022-10-12T09:44:40.130Z,39.98
2022-10-12T09:47:23.654Z,39.93
2022-10-12T09:49:58.849Z,39.73
2022-10-12T09:52:42.503Z,39.29
2022-10-12T09:55:15.934Z,38.91
2022-10-12T09:57:54.481Z,38.60
2022-10-12T10:00:33.262Z,38.42
2022-10-12T10:03:01.740Z,38.15
2022-10-12T10:05:34.212Z,37.79
2022-10-12T10:08:24.260Z,37.32
2022-10-12T10:10:57.813Z,36.96
2022-10-12T10:13:30.556Z,36.70
2022-10-12T10:16:11.352Z,36.61
2022-10-12T10:18:48.630Z,36.62
2022-10-12T10:21:36.792Z,36.63
2022-10-12T10:24:19.708Z,36.74
2022-10-12T10:27:01.983Z,36.90
2022-10-12T10:29:40.714Z,37.14
2022-10-12T10:32:26.451Z,37.40
2022-10-12T10:35:22.053Z,37.65
2022-10-12T10:37:56.107Z,37.85
2022-10-12T10:40:26.134Z,37.92
2022-10-12T10:43:00.347Z,37.81
2022-10-12T10:45:32.783Z,37.65
2022-10-12T10:48:09.125Z,37.37
2022-10-12T10:50:40.797Z,37.00
2022-10-12T10:53:20.786Z,36.46
2022-10-12T10:56:05.519Z,35.97
2022-10-12T10:58:41.788Z,35.59
2022-10-12T11:01:32.477Z,35.23
2022-10-12T11:04:19.973Z,34.81
2022-10-12T11:06:56.437Z,34.43
2022-10-12T11:09:40.406Z,34.06
2022-10-12T11:12:16.215Z,33.69
2022-10-12T11:14:58.454Z,33.19
2022-10-12T11:17:43.962Z,32.59
2022-10-12T11:20:47.887Z,31.99
2022-10-12T11:23:27.071Z,31.61
2022-10-12T11:26:17.522Z,31.25
2022-10-12T11:28:44.547Z,31.03
2022-10-12T11:31:28.645Z,30.83
2022-10-12T11:33:59.460Z,30.68
2022-10-12T11:36:30.499Z,30.49
2022-10-12T11:39:08.018Z,30.30
2022-10-12T11:42:03.222Z,30.15
2022-10-12T11:44:47.641Z,30.00
2022-10-12T11:47:38.549Z,29.91
2022-10-12T11:50:38.783Z,29.89
2022-10-12T11:53:41.849Z,29.82
2022-10-12T11:56:23.260Z,29.69
2022-10-12T11:59:01.129Z,29.39
2022-10-12T12:01:47.070Z,28.92
2022-10-12T12:04:44.140Z,28.59
2022-10-12T12:07:23.031Z,28.29
2022-10-12T12:09:51.339Z,28.13
2022-10-12T12:12:32.238Z,28.04
2022-10-12T12:15:05.274Z,27.95
2022-10-12T12:17:34.298Z,27.83
2022-10-12T12:20:23.586Z,27.72
2022-10-12T12:22:54.715Z,27.59
2022-10-12T12:25:33.144Z,27.49
2022-10-12T12:28:25.538Z,27.37
2022-10-12T12:31:01.386Z,27.24
2022-10-12T12:33:35.123Z,27.15
2022-10-12T12:36:38.454Z,27.02
2022-10-12T12:39:20.339Z,26.84
2022-10-12T12:42:01.350Z,26.64
2022-10-12T12:44:38.249Z,26.48
2022-10-12T12:47:20.558Z,26.37
2022-10-12T12:52:39.505Z,26.31
2022-10-12T12:55:34.317Z,26.30
2022-10-12T12:58:31.129Z,26.28
2022-10-12T13:01:20.126Z,26.28
2022-10-12T13:04:32.884Z,26.22
2022-10-12T13:07:17.702Z,26.22
2022-10-12T13:10:28.039Z,26.14
2022-10-12T13:13:22.131Z,26.08
2022-10-12T13:19:37.318Z,25.88
2022-10-12T13:22:31.817Z,25.80
2022-10-12T13:25:12.873Z,25.68
2022-10-12T13:27:49.097Z,25.55
2022-10-12T13:30:41.078Z,25.44
2022-10-12T13:33:11.246Z,25.33
2022-10-12T13:35:55.559Z,25.23
2022-10-12T13:38:26.685Z,25.12
2022-10-12T13:41:07.039Z,25.01
2022-10-12T13:43:36.465Z,24.92
2022-10-12T13:46:03.858Z,24.86
2022-10-12T13:48:54.308Z,24.81
2022-10-12T13:51:30.946Z,24.79
2022-10-12T13:53:58.105Z,24.77
2022-10-12T13:56:28.937Z,24.77
2022-10-12T13:59:06.715Z,24.77
2022-10-12T14:02:02.909Z,24.72
2022-10-12T14:04:35.069Z,24.74
2022-10-12T14:07:17.867Z,24.76
2022-10-12T14:09:52.623Z,24.78
2022-10-12T14:12:25.209Z,24.78
2022-10-12T14:14:53.750Z,24.73
2022-10-12T14:17:21.544Z,24.69
2022-10-12T14:19:55.151Z,24.67
2022-10-12T14:22:33.193Z,24.62
2022-10-12T14:25:20.308Z,24.54
2022-10-12T14:27:54.353Z,24.49
2022-10-12T14:30:28.559Z,24.44
2022-10-12T14:33:09.792Z,24.37
2022-10-12T14:35:41.940Z,24.30
2022-10-12T14:38:49.445Z,24.19
2022-10-12T14:41:42.761Z,24.05
2022-10-12T14:44:10.828Z,23.97
2022-10-12T14:46:41.755Z,23.88
2022-10-12T14:49:19.650Z,23.78
2022-10-12T14:51:48.455Z,23.67
2022-10-12T14:54:15.754Z,23.57
2022-10-12T14:56:42.475Z,23.47
2022-10-12T14:59:09.659Z,23.35
2022-10-12T15:01:40.954Z,23.25
2022-10-12T15:04:13.359Z,23.13
2022-10-12T15:06:40.538Z,23.02
2022-10-12T15:09:07.305Z,22.93
2022-10-12T15:11:34.082Z,22.81
2022-10-12T15:14:00.817Z,22.72
2022-10-12T15:16:29.430Z,22.60
2022-10-12T15:18:56.214Z,22.50
2022-10-12T15:21:23.094Z,22.40
2022-10-12T15:23:50.305Z,22.31
2022-10-12T15:26:18.644Z,22.20
2022-10-12T15:28:45.618Z,22.09
2022-10-12T15:31:17.808Z,22.00
2022-10-12T15:33:45.376Z,21.87
2022-10-12T15:36:12.422Z,21.79
2022-10-12T15:38:39.804Z,21.68
2022-10-12T15:41:18.209Z,21.56
2022-10-12T15:43:45.001Z,21.44
2022-10-12T15:46:12.279Z,21.35
2022-10-12T15:48:40.287Z,21.28
2022-10-12T15:51:18.214Z,21.19
2022-10-12T15:53:45.037Z,21.12
2022-10-12T15:56:15.057Z,21.05
2022-10-12T15:58:42.518Z,21.00
2022-10-12T16:01:15.190Z,20.92
2022-10-12T16:03:42.623Z,20.86
2022-10-12T16:06:10.817Z,20.84
2022-10-12T16:08:37.813Z,20.80
2022-10-12T16:11:14.437Z,20.78
2022-10-12T16:13:47.950Z,20.74
2022-10-12T16:16:17.715Z,20.71
2022-10-12T16:18:44.914Z,20.68
2022-10-12T16:21:12.110Z,20.65
2022-10-12T16:23:40.525Z,20.61
2022-10-12T16:26:14.457Z,20.55
2022-10-12T16:28:41.807Z,20.48
2022-10-12T16:31:12.380Z,20.44
2022-10-12T16:33:39.612Z,20.36
2022-10-12T16:36:15.725Z,20.29
2022-10-12T16:38:43.868Z,20.21
2022-10-12T16:41:16.717Z,20.15
2022-10-12T16:43:44.185Z,20.08
2022-10-12T16:46:10.949Z,20.01
2022-10-12T16:48:37.810Z,19.96
2022-10-12T16:51:13.481Z,19.89
2022-10-12T16:53:42.378Z,19.83
2022-10-12T16:56:09.666Z,19.75
2022-10-12T16:58:36.380Z,19.69
2022-10-12T17:01:12.424Z,19.63
2022-10-12T17:03:40.520Z,19.52
2022-10-12T17:06:08.101Z,19.46
2022-10-12T17:08:36.106Z,19.40
2022-10-12T17:11:13.593Z,19.28
2022-10-12T17:13:45.191Z,19.21
2022-10-12T17:16:33.492Z,19.13
2022-10-12T17:19:00.392Z,19.02
2022-10-12T17:21:28.071Z,18.95
2022-10-12T17:24:00.409Z,18.89
2022-10-12T17:26:27.976Z,18.83
2022-10-12T17:28:55.474Z,18.75
2022-10-12T17:31:22.335Z,18.69
2022-10-12T17:33:49.232Z,18.66
2022-10-12T17:36:16.161Z,18.62
2022-10-12T17:38:42.903Z,18.61
2022-10-12T17:41:09.671Z,18.54
2022-10-12T17:43:36.373Z,18.48
2022-10-12T17:46:06.065Z,18.42
2022-10-12T17:48:33.248Z,18.33
2022-10-12T17:51:06.020Z,18.28
2022-10-12T17:53:32.782Z,18.19
2022-10-12T17:56:04.451Z,18.14
2022-10-12T17:58:31.560Z,18.06
2022-10-12T18:01:05.052Z,18.00
2022-10-12T18:03:31.900Z,17.94
2022-10-12T18:06:12.368Z,17.89
2022-10-12T18:08:39.665Z,17.81
2022-10-12T18:11:07.753Z,17.77
2022-10-12T18:13:36.179Z,17.73
2022-10-12T18:16:09.821Z,17.71
2022-10-12T18:18:38.181Z,17.65
2022-10-12T18:21:11.433Z,17.62
2022-10-12T18:23:38.195Z,17.57
2022-10-12T18:26:07.848Z,17.52
2022-10-12T18:28:35.317Z,17.50
2022-10-12T18:31:02.702Z,17.48
2022-10-12T18:33:29.926Z,17.45
2022-10-12T18:36:04.283Z,17.41
2022-10-12T18:38:32.093Z,17.36
2022-10-12T18:41:28.158Z,17.31
2022-10-12T18:44:00.548Z,17.24
2022-10-12T18:46:34.670Z,17.17
2022-10-12T18:49:05.230Z,17.12
2022-10-12T18:51:39.713Z,17.05
2022-10-12T18:54:11.549Z,16.98
2022-10-12T18:56:38.944Z,16.92
2022-10-12T18:59:07.068Z,16.87
2022-10-12T19:01:34.477Z,16.82
2022-10-12T19:04:02.602Z,16.76
2022-10-12T19:06:37.022Z,16.70
2022-10-12T19:09:05.509Z,16.62
2022-10-12T19:11:32.556Z,16.54
2022-10-12T19:14:06.906Z,16.45
2022-10-12T19:16:35.432Z,16.37
2022-10-12T19:19:06.720Z,16.32
2022-10-12T19:21:34.283Z,16.28
2022-10-12T19:24:06.598Z,16.24
2022-10-12T19:26:34.878Z,16.22
2022-10-12T19:29:02.110Z,16.19
2022-10-12T19:31:42.728Z,16.16
2022-10-12T19:34:13.265Z,16.14
2022-10-12T19:36:40.689Z,16.13
2022-10-12T19:39:13.461Z,16.09
2022-10-12T19:41:40.642Z,16.07
2022-10-12T19:44:07.832Z,16.04
2022-10-12T19:46:34.939Z,16.01
2022-10-12T19:49:01.802Z,15.99
2022-10-12T19:51:31.132Z,15.96
2022-10-12T19:54:01.570Z,15.94
2022-10-12T19:56:28.808Z,15.93
2022-10-12T19:58:57.821Z,15.92
2022-10-12T20:01:33.430Z,15.93
2022-10-12T20:04:01.569Z,15.92
2022-10-12T20:06:30.011Z,15.94
2022-10-12T20:09:00.026Z,15.95
2022-10-12T20:11:26.839Z,15.97
2022-10-12T20:13:55.068Z,15.99
2022-10-12T20:16:22.161Z,16.01
2022-10-12T20:18:50.377Z,16.05
2022-10-12T20:21:20.957Z,16.07
2022-10-12T20:23:48.286Z,16.09
2022-10-12T20:26:22.283Z,16.10
2022-10-12T20:28:50.303Z,16.11
2022-10-12T20:31:19.244Z,16.12
2022-10-12T20:33:52.252Z,16.14
2022-10-12T20:36:28.109Z,16.15
2022-10-12T20:38:56.477Z,16.14
2022-10-12T20:41:24.497Z,16.16
2022-10-12T20:43:57.226Z,16.14
2022-10-12T20:46:25.525Z,16.15
2022-10-12T20:48:58.711Z,16.14
2022-10-12T20:51:35.980Z,16.13
2022-10-12T20:54:05.723Z,16.11
2022-10-12T20:56:34.411Z,16.11
2022-10-12T20:59:01.946Z,16.09
2022-10-12T21:01:29.584Z,16.10
2022-10-12T21:03:56.690Z,16.08
2022-10-12T21:06:24.009Z,16.08
2022-10-12T21:08:53.515Z,16.06
2022-10-12T21:11:21.536Z,16.04
2022-10-12T21:13:48.342Z,16.00
2022-10-12T21:16:15.822Z,15.99
2022-10-12T21:18:43.030Z,15.95
2022-10-12T21:21:20.121Z,15.89
2022-10-12T21:23:58.981Z,15.81
2022-10-12T21:26:29.282Z,15.75
2022-10-12T21:28:56.317Z,15.69
2022-10-12T21:31:25.219Z,15.64
2022-10-12T21:33:55.109Z,15.58
2022-10-12T21:36:25.002Z,15.52
2022-10-12T21:38:52.005Z,15.47
2022-10-12T21:41:23.556Z,15.42
2022-10-12T21:43:51.529Z,15.36
2022-10-12T21:46:25.145Z,15.31
2022-10-12T21:48:53.065Z,15.25
2022-10-12T21:51:23.195Z,15.21
2022-10-12T21:53:50.739Z,15.15
2022-10-12T21:56:31.840Z,15.13
2022-10-12T21:59:01.495Z,15.07
2022-10-12T22:01:37.079Z,15.02
2022-10-12T22:04:07.712Z,14.99
2022-10-12T22:06:35.152Z,14.94
2022-10-12T22:09:09.781Z,14.92
2022-10-12T22:11:37.983Z,14.87
2022-10-12T22:14:08.787Z,14.84
2022-10-12T22:16:36.973Z,14.82
2022-10-12T22:19:07.742Z,14.78
2022-10-12T22:21:36.379Z,14.78
2022-10-12T22:24:03.747Z,14.77
2022-10-12T22:26:30.700Z,14.75
2022-10-12T22:28:58.011Z,14.75
2022-10-12T22:31:25.119Z,14.74
2022-10-12T22:33:53.321Z,14.75
2022-10-12T22:36:20.240Z,14.70
2022-10-12T22:38:47.268Z,14.70
2022-10-12T22:41:18.415Z,14.69
2022-10-12T22:43:45.306Z,14.67
2022-10-12T22:46:12.463Z,14.64
2022-10-12T22:48:39.353Z,14.64
2022-10-12T22:51:07.855Z,14.61
2022-10-12T22:53:35.590Z,14.58
2022-10-12T22:56:15.660Z,14.56
2022-10-12T22:58:42.866Z,14.54
2022-10-12T23:01:14.022Z,14.55
2022-10-12T23:03:41.298Z,14.55
2022-10-12T23:06:09.999Z,14.58
2022-10-12T23:08:37.057Z,14.60
2022-10-12T23:11:11.838Z,14.62
2022-10-12T23:13:40.308Z,14.64
2022-10-12T23:16:17.466Z,14.67
2022-10-12T23:18:44.665Z,14.71
2022-10-12T23:21:15.856Z,14.74
2022-10-12T23:23:44.924Z,14.77
2022-10-12T23:26:21.617Z,14.80
2022-10-12T23:28:50.170Z,14.83
2022-10-12T23:31:20.755Z,14.87
2022-10-12T23:33:47.844Z,14.92
2022-10-12T23:36:17.318Z,14.97
2022-10-12T23:38:45.465Z,15.01
2022-10-12T23:41:13.634Z,15.06
2022-10-12T23:43:40.648Z,15.09
2022-10-12T23:46:08.388Z,15.12
2022-10-12T23:48:35.293Z,15.17
2022-10-12T23:51:02.346Z,15.20
2022-10-12T23:53:29.181Z,15.24
2022-10-12T23:55:56.416Z,15.27
2022-10-12T23:58:23.265Z,15.31
